createdAt,value
2023-03-13T00:02:08.574Z,0.39
2023-03-13T00:04:55.408Z,0.39
2023-03-13T00:07:28.446Z,0.38
2023-03-13T00:10:15.342Z,0.36
2023-03-13T00:12:51.287Z,0.37
2023-03-13T00:15:38.373Z,0.34
2023-03-13T00:18:11.631Z,0.37
2023-03-13T00:21:08.452Z,0.37
2023-03-13T00:23:44.568Z,0.40
2023-03-13T00:26:33.534Z,0.43
2023-03-13T00:29:14.605Z,0.44
2023-03-13T00:32:08.448Z,0.46
2023-03-13T00:35:02.409Z,0.48
2023-03-13T00:37:56.543Z,0.48
2023-03-13T00:40:50.381Z,0.51
2023-03-13T00:43:37.400Z,0.52
2023-03-13T00:46:18.410Z,0.56
2023-03-13T00:49:05.323Z,0.58
2023-03-13T00:51:38.573Z,0.57
2023-03-13T00:54:25.360Z,0.59
2023-03-13T00:57:05.567Z,0.59
2023-03-13T00:59:52.406Z,0.60
2023-03-13T01:02:32.480Z,0.62
2023-03-13T01:05:27.373Z,0.62
2023-03-13T01:08:14.378Z,0.65
2023-03-13T01:10:49.467Z,0.66
2023-03-13T01:13:37.346Z,0.67
2023-03-13T01:16:19.627Z,0.69
2023-03-13T01:19:12.529Z,0.70
2023-03-13T01:21:47.522Z,0.71
2023-03-13T01:24:34.413Z,0.72
2023-03-13T01:27:14.377Z,0.72
2023-03-13T01:30:08.381Z,0.72
2023-03-13T01:32:55.565Z,0.71
2023-03-13T01:35:28.492Z,0.71
2023-03-13T01:38:16.402Z,0.71
2023-03-13T01:40:55.544Z,0.72
2023-03-13T01:43:43.532Z,0.73
2023-03-13T01:46:20.028Z,0.74
2023-03-13T01:49:32.526Z,0.73
2023-03-13T01:52:13.544Z,0.76
2023-03-13T01:55:15.390Z,0.77
2023-03-13T01:57:54.559Z,0.79
2023-03-13T02:00:43.391Z,0.81
2023-03-13T02:03:30.382Z,0.83
2023-03-13T02:06:24.386Z,0.87
2023-03-13T02:09:25.397Z,0.88
2023-03-13T02:12:21.526Z,0.89
2023-03-13T02:15:15.406Z,0.90
2023-03-13T02:17:49.524Z,0.91
2023-03-13T02:20:36.375Z,0.91
2023-03-13T02:23:35.379Z,0.93
2023-03-13T02:26:29.424Z,0.94
2023-03-13T02:29:24.391Z,0.96
2023-03-13T02:32:00.476Z,0.98
2023-03-13T02:34:50.398Z,1.00
2023-03-13T02:37:25.498Z,1.02
2023-03-13T02:40:18.375Z,1.03
2023-03-13T02:42:52.481Z,1.04
2023-03-13T02:45:39.397Z,1.07
2023-03-13T02:48:12.491Z,1.09
2023-03-13T02:51:06.424Z,1.10
2023-03-13T02:53:57.404Z,1.13
2023-03-13T02:56:33.544Z,1.14
2023-03-13T02:59:20.393Z,1.16
2023-03-13T03:02:00.423Z,1.19
2023-03-13T03:04:47.398Z,1.20
2023-03-13T03:07:27.415Z,1.23
2023-03-13T03:10:21.413Z,1.24
2023-03-13T03:13:08.424Z,1.25
2023-03-13T03:15:41.534Z,1.26
2023-03-13T03:18:28.439Z,1.29
2023-03-13T03:21:01.513Z,1.31
2023-03-13T03:23:48.413Z,1.34
2023-03-13T03:26:21.506Z,1.34
2023-03-13T03:29:08.415Z,1.35
2023-03-13T03:31:41.513Z,1.36
2023-03-13T03:34:28.433Z,1.39
2023-03-13T03:37:08.395Z,1.40
2023-03-13T03:39:55.428Z,1.44
2023-03-13T03:42:28.495Z,1.47
2023-03-13T03:45:15.389Z,1.48
2023-03-13T03:47:48.528Z,1.50
2023-03-13T03:50:42.410Z,1.52
2023-03-13T03:53:36.416Z,1.53
2023-03-13T03:56:23.414Z,1.53
2023-03-13T03:59:03.438Z,1.55
2023-03-13T04:01:50.460Z,1.56
2023-03-13T04:04:30.420Z,1.56
2023-03-13T04:07:24.419Z,1.57
2023-03-13T04:10:18.421Z,1.57
2023-03-13T04:13:05.438Z,1.58
2023-03-13T04:15:38.519Z,1.60
2023-03-13T04:18:25.448Z,1.61
2023-03-13T04:21:07.530Z,1.62
2023-03-13T04:23:54.428Z,1.62
2023-03-13T04:26:34.475Z,1.62
2023-03-13T04:29:28.427Z,1.63
2023-03-13T04:32:15.460Z,1.65
2023-03-13T04:34:48.526Z,1.66
2023-03-13T04:37:35.564Z,1.68
2023-03-13T04:40:09.081Z,1.70
2023-03-13T04:42:55.438Z,1.69
2023-03-13T04:45:28.541Z,1.72
2023-03-13T04:48:15.445Z,1.73
2023-03-13T04:50:48.694Z,1.73
2023-03-13T04:53:35.429Z,1.73
2023-03-13T04:56:08.527Z,1.73
2023-03-13T04:58:55.444Z,1.74
2023-03-13T05:01:28.596Z,1.74
2023-03-13T05:04:16.464Z,1.75
2023-03-13T05:06:49.547Z,1.74
2023-03-13T05:09:36.427Z,1.76
2023-03-13T05:12:09.547Z,1.75
2023-03-13T05:14:56.436Z,1.76
2023-03-13T05:17:36.467Z,1.78
2023-03-13T05:20:30.447Z,1.80
2023-03-13T05:23:17.481Z,1.83
2023-03-13T05:25:50.543Z,1.84
2023-03-13T05:28:37.465Z,1.85
2023-03-13T05:31:17.532Z,1.89
2023-03-13T05:34:04.484Z,1.90
2023-03-13T05:36:37.571Z,1.93
2023-03-13T05:39:24.466Z,1.94
2023-03-13T05:42:04.500Z,1.97
2023-03-13T05:44:58.466Z,2.00
2023-03-13T05:47:52.468Z,2.04
2023-03-13T05:50:46.471Z,2.07
2023-03-13T05:53:40.469Z,2.11
2023-03-13T05:56:27.482Z,2.14
2023-03-13T05:59:00.565Z,2.15
2023-03-13T06:01:47.468Z,2.18
2023-03-13T06:04:27.696Z,2.22
2023-03-13T06:07:21.458Z,2.28
2023-03-13T06:10:15.461Z,2.30
2023-03-13T06:13:17.240Z,2.32
2023-03-13T06:16:00.575Z,2.33
2023-03-13T06:18:47.475Z,2.35
2023-03-13T06:21:20.562Z,2.39
2023-03-13T06:24:07.464Z,2.40
2023-03-13T06:26:49.583Z,2.42
2023-03-13T06:29:43.488Z,2.43
2023-03-13T06:32:30.604Z,2.44
2023-03-13T06:35:11.449Z,2.46
2023-03-13T06:37:58.468Z,2.48
2023-03-13T06:40:38.493Z,2.52
2023-03-13T06:43:25.475Z,2.57
2023-03-13T06:46:05.510Z,2.61
2023-03-13T06:48:59.445Z,2.66
2023-03-13T06:51:53.489Z,2.72
2023-03-13T06:54:40.489Z,2.75
2023-03-13T06:57:20.483Z,2.78
2023-03-13T07:00:14.477Z,2.83
2023-03-13T07:03:01.511Z,2.84
2023-03-13T07:05:34.618Z,2.87
2023-03-13T07:08:21.508Z,2.93
2023-03-13T07:11:01.497Z,2.96
2023-03-13T07:13:48.492Z,3.01
2023-03-13T07:16:21.682Z,3.05
2023-03-13T07:19:08.484Z,3.13
2023-03-13T07:21:41.633Z,3.24
2023-03-13T07:24:28.512Z,3.30
2023-03-13T07:27:07.307Z,3.39
2023-03-13T07:29:54.512Z,3.46
2023-03-13T07:32:27.594Z,3.55
2023-03-13T07:35:14.516Z,3.73
2023-03-13T07:37:47.587Z,3.93
2023-03-13T07:40:34.504Z,4.16
2023-03-13T07:43:07.602Z,4.35
2023-03-13T07:46:02.591Z,4.54
2023-03-13T07:48:48.510Z,4.68
2023-03-13T07:51:45.761Z,4.82
2023-03-13T07:54:32.521Z,4.95
2023-03-13T07:57:05.723Z,5.06
2023-03-13T07:59:52.597Z,5.22
2023-03-13T08:02:25.692Z,5.35
2023-03-13T08:05:12.509Z,5.48
2023-03-13T08:07:45.633Z,5.56
2023-03-13T08:10:32.507Z,5.65
2023-03-13T08:13:05.713Z,5.73
2023-03-13T08:15:52.517Z,5.75
2023-03-13T08:18:32.505Z,5.75
2023-03-13T08:21:24.521Z,5.72
2023-03-13T08:24:13.528Z,5.74
2023-03-13T08:27:07.536Z,5.83
2023-03-13T08:30:01.540Z,5.98
2023-03-13T08:32:48.590Z,6.05
2023-03-13T08:35:21.692Z,6.10
2023-03-13T08:38:09.515Z,6.33
2023-03-13T08:40:49.533Z,6.49
2023-03-13T08:43:36.508Z,6.60
2023-03-13T08:46:10.663Z,6.74
2023-03-13T08:48:58.560Z,6.99
2023-03-13T08:51:41.551Z,7.27
2023-03-13T08:54:28.597Z,7.60
2023-03-13T08:57:01.628Z,7.88
2023-03-13T08:59:48.531Z,8.11
2023-03-13T09:02:28.598Z,8.33
2023-03-13T09:05:22.556Z,8.60
2023-03-13T09:08:09.524Z,8.63
2023-03-13T09:10:42.649Z,8.60
2023-03-13T09:13:30.577Z,8.71
2023-03-13T09:16:28.691Z,8.95
2023-03-13T09:19:15.575Z,9.11
2023-03-13T09:21:49.370Z,9.24
2023-03-13T09:24:36.552Z,9.29
2023-03-13T09:27:09.692Z,9.47
2023-03-13T09:29:56.527Z,9.62
2023-03-13T09:32:29.770Z,9.84
2023-03-13T09:35:16.570Z,9.99
2023-03-13T09:37:49.675Z,10.08
2023-03-13T09:40:36.563Z,10.14
2023-03-13T09:43:09.627Z,10.11
2023-03-13T09:45:59.643Z,10.08
2023-03-13T09:48:46.551Z,10.09
2023-03-13T09:51:46.574Z,10.08
2023-03-13T09:54:52.561Z,9.99
2023-03-13T09:58:03.583Z,9.94
2023-03-13T10:00:55.555Z,9.95
2023-03-13T10:03:45.685Z,9.87
2023-03-13T10:06:36.558Z,9.86
2023-03-13T10:09:16.602Z,9.91
2023-03-13T10:12:25.576Z,9.90
2023-03-13T10:15:30.548Z,9.85
2023-03-13T10:18:05.680Z,9.88
2023-03-13T10:20:54.572Z,9.89
2023-03-13T10:23:45.716Z,9.92
2023-03-13T10:26:36.603Z,9.95
2023-03-13T10:29:35.588Z,10.00
2023-03-13T10:32:30.593Z,10.02
2023-03-13T10:35:26.610Z,10.04
2023-03-13T10:38:09.679Z,9.98
2023-03-13T10:41:24.557Z,9.92
2023-03-13T10:43:59.748Z,9.99
2023-03-13T10:46:52.641Z,9.99
2023-03-13T10:49:29.779Z,10.04
2023-03-13T10:52:57.581Z,10.01
2023-03-13T10:55:57.599Z,10.03
2023-03-13T10:58:53.599Z,10.02
2023-03-13T11:01:51.619Z,10.10
2023-03-13T11:04:47.588Z,10.20
2023-03-13T11:07:48.576Z,10.25
2023-03-13T11:10:36.600Z,10.26
2023-03-13T11:13:19.955Z,10.34
2023-03-13T11:16:33.642Z,10.27
2023-03-13T11:19:20.604Z,10.29
2023-03-13T11:22:05.791Z,10.33
2023-03-13T11:25:17.858Z,10.33
2023-03-13T11:28:14.708Z,10.36
2023-03-13T11:31:24.669Z,10.40
2023-03-13T11:34:25.622Z,10.45
2023-03-13T11:37:18.606Z,10.49
2023-03-13T11:40:45.595Z,10.47
2023-03-13T11:43:32.596Z,10.54
2023-03-13T11:46:35.815Z,10.65
2023-03-13T11:49:22.655Z,10.62
2023-03-13T11:52:22.613Z,10.72
2023-03-13T11:55:45.629Z,10.86
2023-03-13T11:58:54.629Z,10.95
2023-03-13T12:01:48.648Z,10.92
2023-03-13T12:04:43.901Z,10.87
2023-03-13T12:07:36.645Z,10.82
2023-03-13T12:10:16.730Z,10.86
2023-03-13T12:13:20.640Z,10.91
2023-03-13T12:16:05.654Z,10.99
2023-03-13T12:19:00.617Z,10.99
2023-03-13T12:21:56.702Z,11.03
2023-03-13T12:24:34.729Z,11.04
2023-03-13T12:27:27.640Z,11.01
2023-03-13T12:30:12.818Z,10.96
2023-03-13T12:33:25.643Z,10.87
2023-03-13T12:36:25.655Z,10.80
2023-03-13T12:39:33.654Z,10.74
2023-03-13T12:42:31.843Z,10.68
2023-03-13T12:45:24.767Z,10.64
2023-03-13T12:48:30.692Z,10.59
2023-03-13T12:51:42.630Z,10.54
2023-03-13T12:54:41.649Z,10.43
2023-03-13T12:57:59.681Z,10.38
2023-03-13T13:00:57.673Z,10.28
2023-03-13T13:03:55.701Z,10.21
2023-03-13T13:06:29.752Z,10.21
2023-03-13T13:09:26.649Z,10.20
2023-03-13T13:12:01.885Z,10.19
2023-03-13T13:14:54.665Z,10.18
2023-03-13T13:17:27.781Z,10.11
2023-03-13T13:20:45.741Z,9.99
2023-03-13T13:23:41.645Z,9.98
2023-03-13T13:27:00.711Z,9.89
2023-03-13T13:29:47.668Z,9.87
2023-03-13T13:32:28.687Z,9.82
2023-03-13T13:35:18.660Z,9.80
2023-03-13T13:37:59.674Z,9.75
2023-03-13T13:40:53.668Z,9.71
2023-03-13T13:43:54.815Z,9.76
2023-03-13T13:46:39.767Z,9.69
2023-03-13T13:49:28.666Z,9.66
2023-03-13T13:52:10.780Z,9.61
2023-03-13T13:55:03.671Z,9.60
2023-03-13T13:57:44.113Z,9.58
2023-03-13T14:00:33.697Z,9.46
2023-03-13T14:03:06.771Z,9.47
2023-03-13T14:05:58.693Z,9.47
2023-03-13T14:08:37.182Z,9.41
2023-03-13T14:11:43.681Z,9.33
2023-03-13T14:14:30.683Z,9.47
2023-03-13T14:17:17.698Z,9.40
2023-03-13T14:19:50.796Z,9.31
2023-03-13T14:22:52.669Z,9.19
2023-03-13T14:25:34.738Z,9.18
2023-03-13T14:28:46.702Z,9.10
2023-03-13T14:31:33.735Z,9.09
2023-03-13T14:34:17.649Z,9.15
2023-03-13T14:37:17.544Z,9.00
2023-03-13T14:39:52.817Z,8.95
2023-03-13T14:42:46.675Z,8.92
2023-03-13T14:45:25.867Z,8.85
2023-03-13T14:48:21.691Z,8.79
2023-03-13T14:51:08.876Z,8.76
2023-03-13T14:54:15.684Z,8.70
2023-03-13T14:57:15.731Z,8.62
2023-03-13T14:59:49.860Z,8.62
2023-03-13T15:02:38.722Z,8.60
2023-03-13T15:05:14.144Z,8.57
2023-03-13T15:08:01.701Z,8.57
2023-03-13T15:10:41.827Z,8.55
2023-03-13T15:13:40.710Z,8.59
2023-03-13T15:16:32.784Z,8.56
2023-03-13T15:19:19.704Z,8.61
2023-03-13T15:22:04.709Z,8.58
2023-03-13T15:25:07.444Z,8.59
2023-03-13T15:27:50.790Z,8.54
2023-03-13T15:30:30.733Z,8.53
2023-03-13T15:33:10.805Z,8.57
2023-03-13T15:36:04.801Z,8.54
2023-03-13T15:38:58.734Z,8.51
2023-03-13T15:41:45.726Z,8.45
2023-03-13T15:44:18.882Z,8.40
2023-03-13T15:47:05.769Z,8.35
2023-03-13T15:49:38.844Z,8.35
2023-03-13T15:52:28.720Z,8.29
2023-03-13T15:55:02.514Z,8.28
2023-03-13T15:57:53.719Z,8.25
2023-03-13T16:00:28.857Z,8.29
2023-03-13T16:03:28.716Z,8.30
2023-03-13T16:06:10.734Z,8.25
2023-03-13T16:09:06.766Z,8.22
2023-03-13T16:12:00.722Z,8.20
2023-03-13T16:14:48.736Z,8.15
2023-03-13T16:17:25.957Z,8.15
2023-03-13T16:20:22.733Z,8.14
2023-03-13T16:23:03.774Z,8.10
2023-03-13T16:25:52.744Z,8.10
2023-03-13T16:28:32.748Z,8.09
2023-03-13T16:31:45.733Z,8.04
2023-03-13T16:34:32.756Z,8.03
2023-03-13T16:37:05.849Z,8.03
2023-03-13T16:39:53.737Z,8.02
2023-03-13T16:42:26.840Z,8.02
2023-03-13T16:45:14.750Z,8.01
2023-03-13T16:47:56.750Z,8.02
2023-03-13T16:50:52.749Z,8.01
2023-03-13T16:53:46.809Z,8.00
2023-03-13T16:56:41.761Z,7.97
2023-03-13T16:59:24.267Z,7.94
2023-03-13T17:02:10.823Z,7.89
2023-03-13T17:04:50.754Z,7.86
2023-03-13T17:07:44.759Z,7.85
2023-03-13T17:10:41.753Z,7.82
2023-03-13T17:13:30.769Z,7.79
2023-03-13T17:16:03.919Z,7.80
2023-03-13T17:18:52.754Z,7.82
2023-03-13T17:21:36.752Z,7.82
2023-03-13T17:24:23.747Z,7.78
2023-03-13T17:26:56.853Z,7.74
2023-03-13T17:29:43.762Z,7.68
2023-03-13T17:32:25.791Z,7.68
2023-03-13T17:35:19.815Z,7.63
2023-03-13T17:38:13.763Z,7.58
2023-03-13T17:41:07.769Z,7.51
2023-03-13T17:43:54.758Z,7.44
2023-03-13T17:47:02.772Z,7.37
2023-03-13T17:49:50.756Z,7.31
2023-03-13T17:52:23.896Z,7.27
2023-03-13T17:55:10.781Z,7.25
2023-03-13T17:57:43.958Z,7.23
2023-03-13T18:00:26.777Z,7.23
2023-03-13T18:03:13.810Z,7.21
2023-03-13T18:06:07.787Z,7.22
2023-03-13T18:08:55.765Z,7.20
2023-03-13T18:11:36.797Z,7.18
2023-03-13T18:14:23.790Z,7.19
2023-03-13T18:16:57.533Z,7.21
2023-03-13T18:19:43.784Z,7.25
2023-03-13T18:22:29.782Z,7.28
2023-03-13T18:25:23.796Z,7.29
2023-03-13T18:28:10.789Z,7.30
2023-03-13T18:30:50.777Z,7.31
2023-03-13T18:33:37.790Z,7.34
2023-03-13T18:36:27.774Z,7.32
2023-03-13T18:39:14.832Z,7.29
2023-03-13T18:41:47.919Z,7.26
2023-03-13T18:44:34.795Z,7.23
2023-03-13T18:47:15.784Z,7.23
2023-03-13T18:50:09.827Z,7.22
2023-03-13T18:53:03.811Z,7.22
2023-03-13T18:55:50.778Z,7.22
2023-03-13T18:58:30.803Z,7.22
2023-03-13T19:01:20.930Z,7.21
2023-03-13T19:04:01.804Z,7.19
2023-03-13T19:06:55.815Z,7.16
2023-03-13T19:09:44.235Z,7.13
2023-03-13T19:12:19.912Z,7.16
2023-03-13T19:15:06.813Z,7.15
2023-03-13T19:17:46.830Z,7.20
2023-03-13T19:20:40.833Z,7.21
2023-03-13T19:23:34.839Z,7.23
2023-03-13T19:26:32.820Z,7.26
2023-03-13T19:29:12.805Z,7.27
2023-03-13T19:32:00.899Z,7.28
2023-03-13T19:34:33.913Z,7.28
2023-03-13T19:37:22.820Z,7.28
2023-03-13T19:39:55.964Z,7.29
2023-03-13T19:42:42.844Z,7.31
2023-03-13T19:45:21.817Z,7.29
2023-03-13T19:48:08.808Z,7.29
2023-03-13T19:50:42.985Z,7.30
2023-03-13T19:53:29.831Z,7.28
2023-03-13T19:56:10.813Z,7.26
2023-03-13T19:59:16.837Z,7.24
2023-03-13T20:02:03.971Z,7.22
2023-03-13T20:04:36.959Z,7.24
2023-03-13T20:07:23.821Z,7.25
2023-03-13T20:09:56.953Z,7.27
2023-03-13T20:12:43.821Z,7.25
2023-03-13T20:15:18.066Z,7.27
2023-03-13T20:18:04.826Z,7.26
2023-03-13T20:20:37.940Z,7.25
2023-03-13T20:23:24.851Z,7.23
2023-03-13T20:26:04.852Z,7.24
2023-03-13T20:28:53.852Z,7.22
2023-03-13T20:31:36.892Z,7.22
2023-03-13T20:34:30.834Z,7.21
2023-03-13T20:37:17.853Z,7.19
2023-03-13T20:39:57.851Z,7.18
2023-03-13T20:42:45.838Z,7.12
2023-03-13T20:45:18.953Z,7.15
2023-03-13T20:48:05.852Z,7.14
2023-03-13T20:50:39.256Z,7.14
2023-03-13T20:53:33.824Z,7.10
2023-03-13T20:56:27.840Z,7.11
2023-03-13T20:59:14.849Z,7.13
2023-03-13T21:01:54.881Z,7.11
2023-03-13T21:04:48.860Z,7.07
2023-03-13T21:07:35.856Z,7.04
2023-03-13T21:10:09.952Z,7.01
2023-03-13T21:12:56.861Z,6.98
2023-03-13T21:15:29.971Z,6.97
2023-03-13T21:18:16.866Z,6.96
2023-03-13T21:20:49.971Z,6.97
2023-03-13T21:23:37.869Z,6.94
2023-03-13T21:26:11.942Z,6.91
2023-03-13T21:28:59.869Z,6.91
2023-03-13T21:31:39.916Z,6.90
2023-03-13T21:34:26.883Z,6.86
2023-03-13T21:37:06.852Z,6.83
2023-03-13T21:39:56.885Z,6.83
2023-03-13T21:42:36.866Z,6.81
2023-03-13T21:45:23.879Z,6.77
2023-03-13T21:48:03.892Z,6.75
2023-03-13T21:50:50.870Z,6.73
2023-03-13T21:53:23.980Z,6.70
2023-03-13T21:56:10.863Z,6.67
2023-03-13T21:58:43.974Z,6.64
2023-03-13T22:01:30.883Z,6.63
2023-03-13T22:04:03.949Z,6.60
2023-03-13T22:06:50.887Z,6.58
2023-03-13T22:09:30.879Z,6.59
2023-03-13T22:12:17.896Z,6.55
2023-03-13T22:14:57.956Z,6.51
2023-03-13T22:17:51.901Z,6.46
2023-03-13T22:20:45.886Z,6.45
2023-03-13T22:23:32.875Z,6.45
2023-03-13T22:26:12.913Z,6.43
2023-03-13T22:29:06.870Z,6.40
2023-03-13T22:31:53.883Z,6.37
2023-03-13T22:34:26.969Z,6.37
2023-03-13T22:37:13.884Z,6.35
2023-03-13T22:39:46.976Z,6.33
2023-03-13T22:42:33.885Z,6.34
2023-03-13T22:45:07.000Z,6.33
2023-03-13T22:47:53.905Z,6.36
2023-03-13T22:50:28.026Z,6.35
2023-03-13T22:53:14.895Z,6.35
2023-03-13T22:55:54.898Z,6.34
2023-03-13T22:58:48.905Z,6.34
2023-03-13T23:01:35.925Z,6.30
2023-03-13T23:04:09.013Z,6.29
2023-03-13T23:06:55.921Z,6.25
2023-03-13T23:09:28.993Z,6.26
2023-03-13T23:12:15.909Z,6.27
2023-03-13T23:14:48.993Z,6.30
2023-03-13T23:17:40.933Z,6.27
2023-03-13T23:20:16.079Z,6.27
2023-03-13T23:23:02.905Z,6.24
2023-03-13T23:25:36.012Z,6.27
2023-03-13T23:28:22.901Z,6.30
2023-03-13T23:30:56.035Z,6.26
2023-03-13T23:33:42.915Z,6.21
2023-03-13T23:36:19.008Z,6.17
2023-03-13T23:39:05.912Z,6.14
2023-03-13T23:41:45.922Z,6.17
2023-03-13T23:44:32.913Z,6.16
2023-03-13T23:47:06.050Z,6.15
2023-03-13T23:49:52.915Z,6.14
2023-03-13T23:52:26.007Z,6.14
2023-03-13T23:55:13.916Z,6.16
2023-03-13T23:57:47.031Z,6.18
